createdAt,value
2023-04-07T00:01:02.763Z,5.63
2023-04-07T00:03:29.299Z,6.01
2023-04-07T00:05:55.464Z,6.65
2023-04-07T00:08:21.836Z,7.35
2023-04-07T00:10:47.890Z,5.84
2023-04-07T00:13:14.234Z,5.87
2023-04-07T00:15:40.374Z,5.75
2023-04-07T00:18:06.904Z,5.78
2023-04-07T00:20:32.953Z,5.78
2023-04-07T00:22:59.295Z,5.79
2023-04-07T00:25:25.425Z,6.51
2023-04-07T00:27:51.859Z,7.91
2023-04-07T00:30:17.997Z,8.93
2023-04-07T00:32:45.512Z,6.42
2023-04-07T00:35:11.702Z,6.17
2023-04-07T00:37:38.037Z,5.95
2023-04-07T00:40:05.243Z,6.03
2023-04-07T00:42:32.983Z,5.92
2023-04-07T00:44:59.096Z,6.07
2023-04-07T00:47:25.570Z,5.97
2023-04-07T00:49:51.819Z,5.98
2023-04-07T00:52:19.324Z,5.79
2023-04-07T00:54:46.053Z,5.72
2023-04-07T00:57:12.369Z,5.81
2023-04-07T00:59:38.698Z,5.70
2023-04-07T01:02:17.188Z,5.78
2023-04-07T01:04:50.963Z,5.88
2023-04-07T01:07:26.961Z,5.86
2023-04-07T01:10:05.888Z,6.01
2023-04-07T01:13:04.857Z,6.05
2023-04-07T01:15:34.624Z,5.87
2023-04-07T01:18:12.221Z,5.56
2023-04-07T01:20:39.708Z,5.42
2023-04-07T01:23:07.592Z,5.35
2023-04-07T01:25:52.223Z,5.31
2023-04-07T01:28:18.680Z,6.23
2023-04-07T01:30:47.269Z,5.36
2023-04-07T01:33:15.499Z,5.41
2023-04-07T01:35:42.506Z,5.49
2023-04-07T01:38:11.616Z,5.56
2023-04-07T01:40:39.145Z,5.56
2023-04-07T01:43:06.275Z,5.72
2023-04-07T01:45:35.011Z,5.67
2023-04-07T01:48:04.900Z,5.88
2023-04-07T01:50:31.732Z,5.92
2023-04-07T01:52:59.028Z,5.75
2023-04-07T01:55:25.632Z,5.62
2023-04-07T01:58:06.887Z,5.60
2023-04-07T02:00:34.831Z,5.55
2023-04-07T02:03:20.173Z,5.65
2023-04-07T02:05:49.173Z,5.55
2023-04-07T02:08:17.741Z,5.47
2023-04-07T02:10:47.810Z,5.48
2023-04-07T02:13:19.494Z,5.45
2023-04-07T02:15:49.277Z,5.41
2023-04-07T02:18:19.946Z,5.46
2023-04-07T02:20:47.921Z,5.50
2023-04-07T02:23:15.492Z,5.03
2023-04-07T02:25:41.573Z,4.96
2023-04-07T02:28:07.983Z,4.87
2023-04-07T02:30:34.906Z,4.94
2023-04-07T02:33:01.646Z,4.87
2023-04-07T02:35:27.782Z,4.88
2023-04-07T02:37:54.332Z,4.86
2023-04-07T02:40:20.505Z,4.76
2023-04-07T02:42:47.067Z,4.73
2023-04-07T02:45:13.691Z,4.74
2023-04-07T02:47:40.113Z,4.78
2023-04-07T02:50:06.915Z,4.99
2023-04-07T02:52:35.247Z,4.78
2023-04-07T02:55:05.132Z,4.86
2023-04-07T02:57:31.657Z,4.84
2023-04-07T03:00:01.243Z,4.87
2023-04-07T03:02:43.102Z,4.90
2023-04-07T03:05:09.728Z,4.84
2023-04-07T03:07:36.141Z,4.71
2023-04-07T03:10:03.790Z,4.53
2023-04-07T03:12:31.862Z,4.71
2023-04-07T03:14:58.145Z,4.72
2023-04-07T03:17:25.657Z,4.84
2023-04-07T03:19:52.127Z,4.79
2023-04-07T03:22:20.135Z,4.77
2023-04-07T03:24:50.364Z,4.73
2023-04-07T03:27:19.531Z,4.83
2023-04-07T03:29:47.941Z,4.87
2023-04-07T03:32:15.655Z,4.83
2023-04-07T03:34:42.097Z,4.81
2023-04-07T03:37:08.500Z,4.87
2023-04-07T03:39:36.955Z,4.97
2023-04-07T03:42:10.022Z,4.57
2023-04-07T03:44:36.534Z,4.59
2023-04-07T03:47:03.087Z,4.61
2023-04-07T03:49:30.742Z,4.72
2023-04-07T03:52:00.657Z,4.65
2023-04-07T03:54:27.144Z,4.70
2023-04-07T03:56:53.819Z,4.84
2023-04-07T03:59:22.827Z,4.71
2023-04-07T04:01:58.144Z,4.77
2023-04-07T04:04:24.834Z,4.85
2023-04-07T04:06:52.221Z,4.86
2023-04-07T04:09:25.164Z,4.77
2023-04-07T04:11:51.669Z,4.72
2023-04-07T04:14:18.231Z,4.77
2023-04-07T04:16:51.777Z,4.94
2023-04-07T04:19:44.201Z,4.80
2023-04-07T04:22:36.626Z,4.77
2023-04-07T04:25:04.098Z,4.91
2023-04-07T04:27:31.212Z,4.89
2023-04-07T04:30:06.217Z,5.02
2023-04-07T04:32:45.262Z,5.02
2023-04-07T04:35:11.510Z,4.91
2023-04-07T04:37:46.899Z,4.85
2023-04-07T04:40:14.106Z,4.95
2023-04-07T04:42:41.136Z,4.90
2023-04-07T04:45:10.482Z,4.92
2023-04-07T04:47:40.766Z,4.86
2023-04-07T04:50:07.404Z,4.95
2023-04-07T04:52:38.423Z,4.92
2023-04-07T04:55:07.485Z,4.92
2023-04-07T04:57:35.379Z,4.84
2023-04-07T05:00:07.013Z,4.93
2023-04-07T05:02:34.161Z,4.86
2023-04-07T05:05:04.122Z,4.91
2023-04-07T05:07:31.043Z,4.97
2023-04-07T05:09:57.169Z,5.02
2023-04-07T05:12:24.092Z,4.88
2023-04-07T05:14:56.754Z,4.96
2023-04-07T05:17:23.231Z,4.98
2023-04-07T05:19:49.524Z,4.88
2023-04-07T05:22:27.000Z,4.86
2023-04-07T05:24:53.257Z,4.87
2023-04-07T05:27:19.865Z,5.00
2023-04-07T05:29:50.137Z,5.03
2023-04-07T05:32:24.646Z,5.01
2023-04-07T05:34:51.996Z,5.00
2023-04-07T05:37:20.584Z,5.02
2023-04-07T05:39:48.878Z,5.12
2023-04-07T05:42:15.678Z,5.19
2023-04-07T05:44:45.629Z,5.11
2023-04-07T05:47:13.933Z,5.07
2023-04-07T05:49:45.251Z,5.12
2023-04-07T05:52:13.615Z,4.95
2023-04-07T05:54:43.276Z,5.04
2023-04-07T05:57:12.560Z,5.04
2023-04-07T05:59:43.528Z,5.05
2023-04-07T06:02:12.743Z,5.13
2023-04-07T06:04:40.201Z,5.15
2023-04-07T06:07:08.812Z,5.06
2023-04-07T06:09:35.652Z,5.17
2023-04-07T06:12:04.398Z,5.29
2023-04-07T06:14:31.870Z,5.26
2023-04-07T06:17:00.627Z,5.28
2023-04-07T06:19:27.096Z,5.28
2023-04-07T06:21:53.811Z,5.44
2023-04-07T06:24:22.027Z,5.32
2023-04-07T06:26:48.492Z,5.67
2023-04-07T06:29:14.889Z,5.56
2023-04-07T06:31:41.836Z,5.57
2023-04-07T06:34:08.041Z,5.62
2023-04-07T06:36:34.852Z,5.63
2023-04-07T06:39:01.111Z,5.53
2023-04-07T06:41:27.576Z,5.40
2023-04-07T06:43:53.767Z,5.35
2023-04-07T06:46:21.401Z,5.46
2023-04-07T06:48:47.557Z,5.48
2023-04-07T06:51:14.025Z,5.42
2023-04-07T06:53:41.267Z,5.38
2023-04-07T06:56:12.129Z,5.54
2023-04-07T06:58:38.554Z,5.68
2023-04-07T07:01:05.941Z,5.70
2023-04-07T07:03:32.798Z,5.71
2023-04-07T07:06:00.107Z,5.55
2023-04-07T07:08:28.426Z,5.57
2023-04-07T07:10:55.440Z,5.63
2023-04-07T07:13:24.230Z,5.57
2023-04-07T07:15:51.455Z,5.64
2023-04-07T07:18:18.619Z,5.46
2023-04-07T07:20:45.602Z,5.61
2023-04-07T07:23:11.955Z,5.74
2023-04-07T07:25:38.494Z,5.51
2023-04-07T07:28:04.962Z,5.56
2023-04-07T07:30:31.392Z,5.57
2023-04-07T07:32:57.747Z,5.57
2023-04-07T07:35:24.737Z,5.59
2023-04-07T07:37:51.572Z,5.66
2023-04-07T07:40:18.408Z,5.63
2023-04-07T07:42:45.672Z,5.63
2023-04-07T07:45:13.212Z,5.66
2023-04-07T07:47:40.812Z,5.67
2023-04-07T07:50:08.049Z,5.82
2023-04-07T07:52:34.335Z,5.68
2023-04-07T07:55:00.843Z,5.66
2023-04-07T07:57:27.195Z,5.74
2023-04-07T07:59:53.996Z,5.73
2023-04-07T08:02:20.218Z,5.78
2023-04-07T08:04:48.289Z,5.94
2023-04-07T08:07:15.634Z,5.79
2023-04-07T08:09:42.538Z,5.72
2023-04-07T08:12:09.089Z,5.82
2023-04-07T08:14:35.836Z,5.74
2023-04-07T08:17:02.206Z,5.74
2023-04-07T08:19:28.733Z,5.72
2023-04-07T08:21:55.197Z,5.67
2023-04-07T08:24:22.112Z,5.71
2023-04-07T08:26:48.399Z,5.78
2023-04-07T08:29:15.290Z,5.78
2023-04-07T08:31:41.629Z,5.78
2023-04-07T08:34:08.112Z,5.68
2023-04-07T08:36:34.403Z,5.79
2023-04-07T08:39:01.611Z,5.90
2023-04-07T08:41:37.298Z,5.95
2023-04-07T08:44:04.375Z,5.97
2023-04-07T08:46:32.688Z,5.99
2023-04-07T08:49:00.739Z,5.90
2023-04-07T08:51:29.368Z,6.00
2023-04-07T08:54:06.173Z,6.08
2023-04-07T08:56:37.891Z,6.12
2023-04-07T08:59:06.028Z,6.17
2023-04-07T09:01:34.715Z,6.13
2023-04-07T09:04:06.052Z,6.16
2023-04-07T09:06:33.742Z,6.15
2023-04-07T09:09:01.409Z,6.13
2023-04-07T09:11:28.637Z,6.01
2023-04-07T09:13:55.988Z,5.99
2023-04-07T09:16:25.575Z,6.01
2023-04-07T09:18:52.558Z,6.06
2023-04-07T09:21:18.842Z,6.16
2023-04-07T09:23:47.286Z,6.30
2023-04-07T09:26:25.262Z,6.19
2023-04-07T09:28:51.803Z,6.25
2023-04-07T09:31:18.750Z,6.16
2023-04-07T09:33:45.524Z,6.35
2023-04-07T09:36:12.088Z,6.37
2023-04-07T09:38:41.161Z,6.38
2023-04-07T09:41:10.445Z,6.51
2023-04-07T09:43:39.811Z,6.43
2023-04-07T09:46:13.894Z,6.43
2023-04-07T09:48:42.944Z,6.40
2023-04-07T09:51:16.783Z,6.47
2023-04-07T09:53:49.051Z,6.55
2023-04-07T09:56:17.905Z,6.36
2023-04-07T09:58:46.486Z,6.37
2023-04-07T10:01:16.302Z,6.55
2023-04-07T10:03:44.108Z,6.56
2023-04-07T10:06:11.148Z,6.46
2023-04-07T10:08:41.046Z,6.70
2023-04-07T10:11:07.821Z,6.63
2023-04-07T10:13:36.839Z,6.66
2023-04-07T10:16:05.294Z,6.61
2023-04-07T10:18:34.595Z,6.71
2023-04-07T10:21:03.029Z,6.92
2023-04-07T10:23:48.357Z,6.81
2023-04-07T10:26:23.064Z,6.82
2023-04-07T10:28:54.836Z,6.77
2023-04-07T10:31:22.535Z,6.77
2023-04-07T10:33:52.034Z,6.87
2023-04-07T10:36:20.317Z,6.89
2023-04-07T10:39:08.734Z,6.98
2023-04-07T10:41:39.243Z,7.04
2023-04-07T10:44:07.350Z,7.17
2023-04-07T10:46:48.645Z,7.07
2023-04-07T10:49:17.768Z,7.12
2023-04-07T10:52:10.700Z,7.08
2023-04-07T10:54:41.314Z,7.07
2023-04-07T10:57:13.935Z,7.07
2023-04-07T11:00:06.624Z,6.98
2023-04-07T11:02:34.106Z,6.84
2023-04-07T11:05:01.902Z,6.89
2023-04-07T11:07:45.885Z,7.00
2023-04-07T11:10:15.008Z,6.93
2023-04-07T11:12:42.238Z,6.91
2023-04-07T11:15:21.872Z,6.86
2023-04-07T11:18:07.643Z,6.86
2023-04-07T11:21:00.150Z,6.92
2023-04-07T11:23:29.118Z,6.96
2023-04-07T11:26:02.344Z,7.02
2023-04-07T11:28:29.684Z,6.94
2023-04-07T11:30:57.597Z,6.95
2023-04-07T11:33:30.111Z,7.04
2023-04-07T11:35:59.149Z,7.00
2023-04-07T11:38:34.644Z,7.10
2023-04-07T11:41:11.514Z,7.37
2023-04-07T11:43:41.020Z,7.30
2023-04-07T11:46:15.967Z,7.20
2023-04-07T11:48:44.046Z,7.24
2023-04-07T11:51:23.101Z,7.21
2023-04-07T11:53:56.468Z,7.05
2023-04-07T11:56:22.965Z,7.26
2023-04-07T11:58:53.366Z,7.37
2023-04-07T12:01:20.393Z,7.29
2023-04-07T12:04:01.093Z,7.23
2023-04-07T12:06:30.224Z,7.22
2023-04-07T12:08:56.444Z,7.11
2023-04-07T12:11:24.364Z,7.08
2023-04-07T12:13:51.156Z,7.11
2023-04-07T12:16:18.373Z,7.11
2023-04-07T12:18:44.591Z,7.12
2023-04-07T12:21:11.080Z,7.19
2023-04-07T12:23:37.189Z,7.18
2023-04-07T12:26:03.797Z,7.22
2023-04-07T12:28:33.162Z,7.22
2023-04-07T12:30:59.540Z,7.20
2023-04-07T12:33:25.608Z,7.24
2023-04-07T12:35:52.148Z,7.20
2023-04-07T12:38:18.263Z,7.14
2023-04-07T12:40:44.713Z,7.22
2023-04-07T12:43:11.164Z,7.20
2023-04-07T12:45:37.721Z,7.25
2023-04-07T12:48:04.648Z,7.20
2023-04-07T12:50:31.352Z,7.20
2023-04-07T12:53:03.087Z,7.21
2023-04-07T12:55:30.212Z,7.24
2023-04-07T12:57:56.333Z,7.35
2023-04-07T13:00:22.717Z,7.47
2023-04-07T13:02:49.014Z,7.50
2023-04-07T13:05:15.955Z,7.51
2023-04-07T13:07:42.039Z,7.47
2023-04-07T13:10:08.978Z,7.48
2023-04-07T13:12:35.518Z,7.56
2023-04-07T13:15:02.470Z,7.52
2023-04-07T13:17:29.261Z,7.51
2023-04-07T13:19:56.046Z,7.53
2023-04-07T13:22:24.707Z,7.56
2023-04-07T13:24:51.345Z,7.56
2023-04-07T13:27:17.611Z,7.49
2023-04-07T13:29:44.148Z,7.48
2023-04-07T13:32:14.653Z,7.63
2023-04-07T13:34:41.508Z,7.54
2023-04-07T13:37:07.769Z,7.64
2023-04-07T13:39:34.178Z,7.74
2023-04-07T13:42:00.490Z,7.63
2023-04-07T13:44:28.862Z,7.49
2023-04-07T13:46:56.925Z,7.85
2023-04-07T13:49:23.930Z,7.72
2023-04-07T13:51:50.688Z,7.76
2023-04-07T13:54:17.767Z,7.65
2023-04-07T13:56:44.212Z,7.59
2023-04-07T13:59:11.005Z,7.55
2023-04-07T14:01:38.628Z,7.61
2023-04-07T14:04:05.715Z,7.62
2023-04-07T14:06:32.078Z,7.73
2023-04-07T14:08:58.652Z,7.84
2023-04-07T14:11:25.862Z,7.84
2023-04-07T14:13:52.844Z,7.75
2023-04-07T14:16:20.538Z,7.78
2023-04-07T14:18:48.664Z,7.96
2023-04-07T14:21:14.965Z,7.80
2023-04-07T14:23:41.768Z,7.64
2023-04-07T14:26:11.876Z,7.66
2023-04-07T14:28:38.952Z,7.63
2023-04-07T14:31:05.373Z,7.61
2023-04-07T14:33:31.874Z,7.60
2023-04-07T14:35:58.301Z,7.77
2023-04-07T14:38:25.204Z,7.78
2023-04-07T14:40:52.374Z,7.72
2023-04-07T14:43:19.302Z,7.90
2023-04-07T14:45:45.704Z,7.78
2023-04-07T14:48:12.907Z,7.74
2023-04-07T14:50:39.792Z,7.76
2023-04-07T14:53:06.343Z,7.77
2023-04-07T14:55:33.003Z,7.76
2023-04-07T14:58:00.094Z,7.82
2023-04-07T15:00:28.022Z,8.02
2023-04-07T15:02:55.173Z,7.88
2023-04-07T15:05:25.381Z,8.10
2023-04-07T15:07:51.990Z,7.97
2023-04-07T15:10:18.568Z,7.77
2023-04-07T15:12:48.347Z,7.92
2023-04-07T15:15:15.271Z,7.73
2023-04-07T15:17:44.777Z,7.84
2023-04-07T15:20:12.181Z,7.85
2023-04-07T15:22:38.754Z,7.97
2023-04-07T15:25:05.501Z,7.77
2023-04-07T15:27:32.204Z,7.85
2023-04-07T15:29:58.628Z,7.93
2023-04-07T15:32:25.144Z,7.99
2023-04-07T15:34:51.454Z,8.00
2023-04-07T15:37:18.655Z,8.00
2023-04-07T15:39:45.203Z,7.97
2023-04-07T15:42:12.077Z,8.02
2023-04-07T15:44:38.888Z,8.04
2023-04-07T15:47:06.447Z,7.98
2023-04-07T15:49:33.560Z,8.00
2023-04-07T15:52:03.078Z,7.92
2023-04-07T15:54:30.139Z,8.06
2023-04-07T15:56:56.619Z,7.98
2023-04-07T15:59:23.487Z,7.94
2023-04-07T16:01:50.612Z,7.99
2023-04-07T16:04:18.504Z,7.97
2023-04-07T16:06:45.322Z,7.99
2023-04-07T16:09:11.521Z,8.03
2023-04-07T16:11:38.145Z,8.04
2023-04-07T16:14:04.734Z,7.97
2023-04-07T16:16:35.214Z,8.00
2023-04-07T16:19:01.756Z,8.03
2023-04-07T16:21:28.271Z,8.09
2023-04-07T16:23:54.673Z,8.14
2023-04-07T16:26:21.455Z,8.11
2023-04-07T16:28:48.473Z,8.11
2023-04-07T16:31:15.270Z,8.11
2023-04-07T16:33:41.439Z,8.08
2023-04-07T16:36:07.884Z,8.09
2023-04-07T16:38:34.348Z,8.13
2023-04-07T16:41:04.386Z,8.15
2023-04-07T16:43:31.472Z,8.11
2023-04-07T16:45:59.218Z,8.15
2023-04-07T16:48:25.797Z,8.15
2023-04-07T16:50:52.554Z,8.14
2023-04-07T16:53:20.089Z,8.21
2023-04-07T16:55:47.695Z,8.17
2023-04-07T16:58:18.500Z,8.02
2023-04-07T17:00:45.802Z,8.11
2023-04-07T17:03:14.622Z,8.16
2023-04-07T17:05:41.414Z,8.14
2023-04-07T17:08:07.625Z,8.20
2023-04-07T17:10:34.417Z,8.17
2023-04-07T17:13:00.891Z,8.17
2023-04-07T17:15:27.343Z,8.25
2023-04-07T17:17:54.053Z,8.40
2023-04-07T17:20:21.978Z,8.39
2023-04-07T17:22:48.329Z,8.40
2023-04-07T17:25:17.765Z,8.35
2023-04-07T17:27:47.086Z,8.35
2023-04-07T17:30:13.702Z,8.34
2023-04-07T17:32:39.900Z,8.35
2023-04-07T17:35:06.706Z,8.35
2023-04-07T17:37:33.338Z,8.40
2023-04-07T17:40:00.604Z,8.41
2023-04-07T17:42:26.864Z,8.58
2023-04-07T17:44:53.638Z,8.55
2023-04-07T17:47:20.024Z,8.47
2023-04-07T17:49:46.550Z,8.44
2023-04-07T17:52:13.551Z,8.43
2023-04-07T17:54:40.544Z,8.46
2023-04-07T17:57:07.840Z,8.50
2023-04-07T17:59:34.306Z,8.58
2023-04-07T18:02:07.912Z,8.63
2023-04-07T18:04:36.732Z,8.66
2023-04-07T18:07:04.463Z,8.67
2023-04-07T18:09:32.289Z,8.58
2023-04-07T18:12:00.412Z,8.76
2023-04-07T18:14:27.358Z,8.70
2023-04-07T18:16:54.828Z,8.73
2023-04-07T18:19:24.768Z,8.62
2023-04-07T18:21:53.304Z,8.73
2023-04-07T18:24:21.053Z,8.81
2023-04-07T18:26:47.519Z,8.86
2023-04-07T18:29:14.150Z,8.85
2023-04-07T18:31:43.579Z,8.92
2023-04-07T18:34:10.682Z,8.87
2023-04-07T18:36:40.123Z,8.78
2023-04-07T18:39:07.088Z,8.67
2023-04-07T18:41:33.560Z,8.77
2023-04-07T18:44:00.229Z,8.79
2023-04-07T18:46:27.018Z,8.81
2023-04-07T18:48:53.617Z,8.83
2023-04-07T18:51:20.158Z,8.87
2023-04-07T18:53:46.827Z,8.81
2023-04-07T18:56:13.638Z,8.89
2023-04-07T18:58:44.107Z,8.81
2023-04-07T19:01:11.426Z,8.91
2023-04-07T19:03:39.220Z,8.94
2023-04-07T19:06:05.714Z,8.96
2023-04-07T19:08:32.270Z,8.97
2023-04-07T19:10:58.746Z,8.94
2023-04-07T19:13:26.116Z,8.98
2023-04-07T19:15:52.806Z,9.05
2023-04-07T19:18:20.360Z,9.03
2023-04-07T19:20:47.017Z,8.94
2023-04-07T19:23:14.172Z,8.89
2023-04-07T19:25:42.589Z,8.96
2023-04-07T19:28:10.680Z,8.95
2023-04-07T19:30:37.128Z,8.94
2023-04-07T19:33:04.484Z,8.98
2023-04-07T19:35:32.112Z,8.97
2023-04-07T19:37:58.959Z,8.96
2023-04-07T19:40:25.616Z,8.98
2023-04-07T19:42:54.161Z,8.93
2023-04-07T19:45:20.732Z,8.91
2023-04-07T19:47:47.664Z,8.89
2023-04-07T19:50:14.335Z,9.06
2023-04-07T19:52:43.801Z,9.01
2023-04-07T19:55:13.430Z,8.99
2023-04-07T19:57:40.485Z,9.04
2023-04-07T20:00:08.260Z,9.09
2023-04-07T20:02:36.131Z,9.13
2023-04-07T20:05:03.298Z,9.06
2023-04-07T20:07:32.977Z,9.28
2023-04-07T20:10:00.419Z,9.15
2023-04-07T20:12:27.069Z,9.19
2023-04-07T20:14:53.504Z,9.22
2023-04-07T20:17:20.081Z,9.27
2023-04-07T20:19:47.186Z,9.25
2023-04-07T20:22:13.695Z,9.22
2023-04-07T20:24:40.116Z,9.26
2023-04-07T20:27:06.906Z,9.25
2023-04-07T20:29:33.459Z,9.28
2023-04-07T20:32:02.645Z,9.20
2023-04-07T20:34:28.983Z,9.13
2023-04-07T20:36:55.824Z,9.18
2023-04-07T20:39:22.020Z,9.17
2023-04-07T20:41:48.511Z,9.10
2023-04-07T20:44:14.707Z,9.06
2023-04-07T20:46:41.493Z,9.09
2023-04-07T20:49:08.196Z,9.10
2023-04-07T20:51:38.006Z,9.04
2023-04-07T20:54:04.650Z,9.08
2023-04-07T20:56:31.452Z,9.01
2023-04-07T20:58:57.756Z,8.95
2023-04-07T21:01:24.243Z,8.90
2023-04-07T21:03:52.092Z,8.91
2023-04-07T21:06:18.709Z,8.83
2023-04-07T21:08:45.242Z,8.78
2023-04-07T21:11:12.311Z,8.74
2023-04-07T21:13:38.867Z,8.80
2023-04-07T21:16:06.290Z,8.72
2023-04-07T21:18:32.944Z,9.01
2023-04-07T21:21:01.413Z,8.96
2023-04-07T21:23:27.738Z,8.95
2023-04-07T21:25:59.459Z,8.83
2023-04-07T21:28:25.811Z,8.93
2023-04-07T21:30:54.882Z,8.83
2023-04-07T21:33:21.115Z,8.90
2023-04-07T21:35:49.456Z,8.83
2023-04-07T21:38:16.481Z,8.98
2023-04-07T21:40:42.984Z,8.96
2023-04-07T21:43:09.170Z,8.85
2023-04-07T21:45:35.821Z,8.79
2023-04-07T21:48:02.213Z,8.73
2023-04-07T21:50:29.214Z,8.74
2023-04-07T21:52:55.697Z,8.73
2023-04-07T21:55:22.405Z,8.68
2023-04-07T21:57:49.475Z,8.76
2023-04-07T22:00:15.891Z,8.74
2023-04-07T22:02:43.073Z,8.76
2023-04-07T22:05:10.149Z,8.98
2023-04-07T22:07:36.658Z,9.11
2023-04-07T22:10:03.636Z,9.16
2023-04-07T22:12:30.037Z,9.09
2023-04-07T22:14:56.605Z,9.17
2023-04-07T22:17:22.932Z,9.14
2023-04-07T22:19:51.021Z,9.07
2023-04-07T22:22:17.236Z,9.06
2023-04-07T22:24:43.584Z,9.04
2023-04-07T22:27:09.747Z,9.06
2023-04-07T22:29:36.148Z,9.00
2023-04-07T22:32:02.228Z,9.01
2023-04-07T22:34:28.652Z,8.95
2023-04-07T22:36:54.745Z,8.93
2023-04-07T22:39:22.862Z,8.84
2023-04-07T22:41:48.985Z,8.77
2023-04-07T22:44:15.342Z,8.75
2023-04-07T22:46:41.552Z,8.70
2023-04-07T22:49:07.996Z,8.64
2023-04-07T22:51:34.079Z,8.62
2023-04-07T22:54:00.504Z,8.61
2023-04-07T22:56:26.916Z,8.53
2023-04-07T22:58:53.294Z,8.56
2023-04-07T23:01:19.710Z,8.55
2023-04-07T23:03:46.688Z,8.55
2023-04-07T23:06:12.850Z,8.63
2023-04-07T23:08:39.231Z,8.62
2023-04-07T23:11:09.004Z,8.61
2023-04-07T23:13:35.364Z,8.57
2023-04-07T23:16:02.998Z,8.55
2023-04-07T23:18:29.506Z,8.51
2023-04-07T23:20:55.572Z,8.46
2023-04-07T23:23:22.023Z,8.40
2023-04-07T23:25:48.195Z,8.25
2023-04-07T23:28:14.751Z,8.24
2023-04-07T23:30:59.407Z,8.22
2023-04-07T23:33:25.771Z,8.14
2023-04-07T23:35:51.918Z,8.17
2023-04-07T23:38:18.341Z,8.15
2023-04-07T23:40:44.428Z,8.10
2023-04-07T23:43:11.238Z,8.11
2023-04-07T23:45:37.385Z,7.99
2023-04-07T23:48:03.839Z,8.02
2023-04-07T23:50:30.198Z,7.93
2023-04-07T23:52:56.572Z,7.95
2023-04-07T23:55:22.821Z,7.83
2023-04-07T23:57:49.181Z,7.71
